createdAt,value
2022-12-05T00:00:33.621Z,60.53
2022-12-05T00:03:04.803Z,60.78
2022-12-05T00:05:31.768Z,59.95
2022-12-05T00:07:58.344Z,61.00
2022-12-05T00:10:24.851Z,61.21
2022-12-05T00:12:51.535Z,60.62
2022-12-05T00:15:18.130Z,60.73
2022-12-05T00:17:44.632Z,60.02
2022-12-05T00:20:11.395Z,60.35
2022-12-05T00:22:38.982Z,62.09
2022-12-05T00:25:08.852Z,61.79
2022-12-05T00:27:35.377Z,60.19
2022-12-05T00:30:02.368Z,61.19
2022-12-05T00:32:29.876Z,60.68
2022-12-05T00:34:56.726Z,60.57
2022-12-05T00:37:23.901Z,60.94
2022-12-05T00:39:50.591Z,61.01
2022-12-05T00:42:17.653Z,60.45
2022-12-05T00:44:44.185Z,60.28
2022-12-05T00:47:10.695Z,59.93
2022-12-05T00:49:37.165Z,60.92
2022-12-05T00:52:04.761Z,60.07
2022-12-05T00:54:31.233Z,60.12
2022-12-05T00:56:57.733Z,59.90
2022-12-05T00:59:24.192Z,60.72
2022-12-05T01:01:51.504Z,60.42
2022-12-05T01:04:23.700Z,60.86
2022-12-05T01:06:50.776Z,59.79
2022-12-05T01:09:20.049Z,60.51
2022-12-05T01:11:46.656Z,61.65
2022-12-05T01:14:14.891Z,62.45
2022-12-05T01:16:42.987Z,62.16
2022-12-05T01:19:14.251Z,62.33
2022-12-05T01:21:41.654Z,63.00
2022-12-05T01:24:08.992Z,63.40
2022-12-05T01:26:35.588Z,62.79
2022-12-05T01:29:02.129Z,62.92
2022-12-05T01:31:33.792Z,62.23
2022-12-05T01:34:01.911Z,61.43
2022-12-05T01:36:28.844Z,62.17
2022-12-05T01:38:56.157Z,61.94
2022-12-05T01:41:25.754Z,61.65
2022-12-05T01:44:05.820Z,61.97
2022-12-05T01:46:36.599Z,60.83
2022-12-05T01:49:17.259Z,60.97
2022-12-05T01:51:55.801Z,60.72
2022-12-05T01:54:23.292Z,60.46
2022-12-05T01:56:58.852Z,61.02
2022-12-05T01:59:27.197Z,60.47
2022-12-05T02:01:54.346Z,61.25
2022-12-05T02:04:21.003Z,61.76
2022-12-05T02:06:47.637Z,61.90
2022-12-05T02:09:14.357Z,61.75
2022-12-05T02:11:58.327Z,61.27
2022-12-05T02:14:51.695Z,60.93
2022-12-05T02:17:32.567Z,60.95
2022-12-05T02:20:02.105Z,60.51
2022-12-05T02:22:42.969Z,61.17
2022-12-05T02:25:18.774Z,62.09
2022-12-05T02:27:51.253Z,60.61
2022-12-05T02:30:20.271Z,60.92
2022-12-05T02:32:49.837Z,60.71
2022-12-05T02:35:28.356Z,59.82
2022-12-05T02:38:23.825Z,59.32
2022-12-05T02:40:56.365Z,59.21
2022-12-05T02:43:30.195Z,59.44
2022-12-05T02:46:01.026Z,59.63
2022-12-05T02:48:28.946Z,58.97
2022-12-05T02:50:57.275Z,58.66
2022-12-05T02:53:25.326Z,58.22
2022-12-05T02:55:52.086Z,59.46
2022-12-05T02:58:23.201Z,58.68
2022-12-05T03:00:51.023Z,59.16
2022-12-05T03:03:19.973Z,60.15
2022-12-05T03:05:57.015Z,58.85
2022-12-05T03:08:26.209Z,59.42
2022-12-05T03:10:53.516Z,59.16
2022-12-05T03:13:34.386Z,59.19
2022-12-05T03:16:04.478Z,59.90
2022-12-05T03:18:42.385Z,60.31
2022-12-05T03:21:16.281Z,61.03
2022-12-05T03:23:47.524Z,60.11
2022-12-05T03:26:37.412Z,59.16
2022-12-05T03:29:10.055Z,61.03
2022-12-05T03:32:11.820Z,60.16
2022-12-05T03:34:47.495Z,60.43
2022-12-05T03:37:22.299Z,61.17
2022-12-05T03:39:55.795Z,60.72
2022-12-05T03:42:29.307Z,61.08
2022-12-05T03:45:14.581Z,61.04
2022-12-05T03:47:45.495Z,61.69
2022-12-05T03:50:30.556Z,61.63
2022-12-05T03:53:23.455Z,61.79
2022-12-05T03:55:57.332Z,62.10
2022-12-05T03:58:47.683Z,61.81
2022-12-05T04:01:16.025Z,61.85
2022-12-05T04:03:46.706Z,62.95
2022-12-05T04:06:24.851Z,62.06
2022-12-05T04:08:54.428Z,61.80
2022-12-05T04:11:23.288Z,61.75
2022-12-05T04:14:03.164Z,62.42
2022-12-05T04:17:00.638Z,62.41
2022-12-05T04:19:29.461Z,62.79
2022-12-05T04:21:57.156Z,62.43
2022-12-05T04:24:45.245Z,61.85
2022-12-05T04:27:28.293Z,62.01
2022-12-05T04:30:03.194Z,63.11
2022-12-05T04:32:37.250Z,63.08
2022-12-05T04:35:07.411Z,63.05
2022-12-05T04:37:36.345Z,63.01
2022-12-05T04:40:10.543Z,63.16
2022-12-05T04:42:38.137Z,63.16
2022-12-05T04:45:10.716Z,63.53
2022-12-05T04:47:43.953Z,64.31
2022-12-05T04:50:12.312Z,64.44
2022-12-05T04:52:39.479Z,63.28
2022-12-05T04:58:47.171Z,63.12
2022-12-05T05:01:16.710Z,63.15
2022-12-05T05:03:48.167Z,62.10
2022-12-05T05:06:14.974Z,63.03
2022-12-05T05:08:50.394Z,62.58
2022-12-05T05:11:22.210Z,61.63
2022-12-05T05:13:49.167Z,62.44
2022-12-05T05:16:18.279Z,62.25
2022-12-05T05:18:48.938Z,62.83
2022-12-05T05:21:20.577Z,63.43
2022-12-05T05:23:47.629Z,63.39
2022-12-05T05:26:14.317Z,63.35
2022-12-05T05:28:40.968Z,62.76
2022-12-05T05:31:08.209Z,63.69
2022-12-05T05:33:35.261Z,63.21
2022-12-05T05:36:06.488Z,63.44
2022-12-05T05:38:41.181Z,64.02
2022-12-05T05:41:13.121Z,63.65
2022-12-05T05:43:40.272Z,63.55
2022-12-05T05:46:06.779Z,63.25
2022-12-05T05:48:33.318Z,62.95
2022-12-05T05:51:01.094Z,62.22
2022-12-05T05:53:27.608Z,61.97
2022-12-05T05:55:54.100Z,62.14
2022-12-05T05:58:20.657Z,61.56
2022-12-05T06:00:47.211Z,61.28
2022-12-05T06:03:13.829Z,61.46
2022-12-05T06:05:40.416Z,61.65
2022-12-05T06:08:06.961Z,61.18
2022-12-05T06:10:33.497Z,60.98
2022-12-05T06:13:00.106Z,61.12
2022-12-05T06:15:26.563Z,60.88
2022-12-05T06:17:53.155Z,61.41
2022-12-05T06:20:19.658Z,61.12
2022-12-05T06:22:46.359Z,61.16
2022-12-05T06:25:12.867Z,61.81
2022-12-05T06:27:39.333Z,61.59
2022-12-05T06:30:06.573Z,61.70
2022-12-05T06:32:33.147Z,62.17
2022-12-05T06:34:59.907Z,62.51
2022-12-05T06:37:26.399Z,63.12
2022-12-05T06:39:53.101Z,63.04
2022-12-05T06:42:19.741Z,64.32
2022-12-05T06:44:46.277Z,64.17
2022-12-05T06:47:12.743Z,63.94
2022-12-05T06:49:39.261Z,64.34
2022-12-05T06:52:05.860Z,64.25
2022-12-05T06:54:32.445Z,64.24
2022-12-05T06:56:58.907Z,63.94
2022-12-05T06:59:25.577Z,64.39
2022-12-05T07:01:52.207Z,64.25
2022-12-05T07:04:23.973Z,64.61
2022-12-05T07:06:51.760Z,64.60
2022-12-05T07:09:20.362Z,64.43
2022-12-05T07:11:50.648Z,64.35
2022-12-05T07:14:38.940Z,64.51
2022-12-05T07:17:04.417Z,64.57
2022-12-05T07:19:30.968Z,65.27
2022-12-05T07:21:57.498Z,64.95
2022-12-05T07:24:24.119Z,65.30
2022-12-05T07:26:50.579Z,64.84
2022-12-05T07:29:17.185Z,64.85
2022-12-05T07:31:43.711Z,65.19
2022-12-05T07:34:10.218Z,65.00
2022-12-05T07:36:36.728Z,64.91
2022-12-05T07:39:04.151Z,64.64
2022-12-05T07:41:32.724Z,64.77
2022-12-05T07:44:00.226Z,65.42
2022-12-05T07:46:28.141Z,65.27
2022-12-05T07:48:55.122Z,65.35
2022-12-05T07:51:22.058Z,64.96
2022-12-05T07:53:48.780Z,64.48
2022-12-05T07:56:17.484Z,64.24
2022-12-05T07:58:45.200Z,64.04
2022-12-05T08:01:13.059Z,63.99
2022-12-05T08:03:39.637Z,63.83
2022-12-05T08:06:08.972Z,63.96
2022-12-05T08:08:35.479Z,63.69
2022-12-05T08:11:06.860Z,63.56
2022-12-05T08:13:34.051Z,63.58
2022-12-05T08:16:04.905Z,63.83
2022-12-05T08:18:31.796Z,63.56
2022-12-05T08:21:05.807Z,63.86
2022-12-05T08:23:33.218Z,63.94
2022-12-05T08:26:14.517Z,63.35
2022-12-05T08:28:41.849Z,63.51
2022-12-05T08:31:15.384Z,63.06
2022-12-05T08:33:43.017Z,62.69
2022-12-05T08:36:11.912Z,62.66
2022-12-05T08:38:38.485Z,62.85
2022-12-05T08:41:08.068Z,63.00
2022-12-05T08:43:34.799Z,62.91
2022-12-05T08:46:01.593Z,63.05
2022-12-05T08:48:29.806Z,63.18
2022-12-05T08:50:57.210Z,63.29
2022-12-05T08:53:23.788Z,63.33
2022-12-05T08:55:50.386Z,63.29
2022-12-05T08:58:17.007Z,63.72
2022-12-05T09:00:43.617Z,63.27
2022-12-05T09:03:11.581Z,62.98
2022-12-05T09:05:38.537Z,63.24
2022-12-05T09:08:05.278Z,63.33
2022-12-05T09:10:32.240Z,63.05
2022-12-05T09:13:08.780Z,62.76
2022-12-05T09:15:38.730Z,62.42
2022-12-05T09:18:09.073Z,62.50
2022-12-05T09:20:41.465Z,62.28
2022-12-05T09:23:11.625Z,62.22
2022-12-05T09:25:41.369Z,62.24
2022-12-05T09:28:07.827Z,61.71
2022-12-05T09:30:34.280Z,61.72
2022-12-05T09:33:00.743Z,61.35
2022-12-05T09:35:39.990Z,61.33
2022-12-05T09:38:06.455Z,61.16
2022-12-05T09:40:32.962Z,62.33
2022-12-05T09:43:06.054Z,62.12
2022-12-05T09:45:37.810Z,62.62
2022-12-05T09:48:12.510Z,62.65
2022-12-05T09:50:45.758Z,62.79
2022-12-05T09:53:30.660Z,63.06
2022-12-05T09:56:09.501Z,62.95
2022-12-05T09:58:46.443Z,63.41
2022-12-05T10:01:42.487Z,64.07
2022-12-05T10:04:24.338Z,63.93
2022-12-05T10:07:02.192Z,64.33
2022-12-05T10:09:50.702Z,64.24
2022-12-05T10:12:36.919Z,64.10
2022-12-05T10:15:23.533Z,63.88
2022-12-05T10:17:57.791Z,63.52
2022-12-05T10:20:32.428Z,63.01
2022-12-05T10:23:55.384Z,62.77
2022-12-05T10:26:12.857Z,63.12
2022-12-05T10:28:49.777Z,63.54
2022-12-05T10:31:19.685Z,63.73
2022-12-05T10:33:50.677Z,63.86
2022-12-05T10:36:17.264Z,63.69
2022-12-05T10:38:45.311Z,63.37
2022-12-05T10:41:14.295Z,63.30
2022-12-05T10:43:43.893Z,62.69
2022-12-05T10:46:16.810Z,61.92
2022-12-05T10:48:44.460Z,61.36
2022-12-05T10:51:16.972Z,61.67
2022-12-05T10:53:50.667Z,60.79
2022-12-05T10:56:37.484Z,61.14
2022-12-05T10:59:04.532Z,60.37
2022-12-05T11:01:32.730Z,60.17
2022-12-05T11:04:01.794Z,59.93
2022-12-05T11:06:31.462Z,59.66
2022-12-05T11:09:19.854Z,59.31
2022-12-05T11:11:58.562Z,59.26
2022-12-05T11:14:26.256Z,59.65
2022-12-05T11:17:00.941Z,59.05
2022-12-05T11:19:38.326Z,59.08
2022-12-05T11:22:07.843Z,59.10
2022-12-05T11:24:36.912Z,59.56
2022-12-05T11:27:15.586Z,61.66
2022-12-05T11:29:43.520Z,60.95
2022-12-05T11:32:21.860Z,61.62
2022-12-05T11:35:07.092Z,62.45
2022-12-05T11:37:56.027Z,61.23
2022-12-05T11:40:31.739Z,62.64
2022-12-05T11:43:15.777Z,62.76
2022-12-05T11:45:52.505Z,62.30
2022-12-05T11:48:33.925Z,61.68
2022-12-05T11:51:15.097Z,62.44
2022-12-05T11:54:03.301Z,62.68
2022-12-05T11:56:42.312Z,63.85
2022-12-05T11:59:24.422Z,64.06
2022-12-05T12:02:11.543Z,64.12
2022-12-05T12:05:05.576Z,64.02
2022-12-05T12:07:54.367Z,63.40
2022-12-05T12:10:40.472Z,63.45
2022-12-05T12:13:19.203Z,63.99
2022-12-05T12:16:08.533Z,64.38
2022-12-05T12:18:47.401Z,65.12
2022-12-05T12:21:38.788Z,66.41
2022-12-05T12:24:18.948Z,66.27
2022-12-05T12:27:07.576Z,66.44
2022-12-05T12:29:56.149Z,65.42
2022-12-05T12:32:25.497Z,66.09
2022-12-05T12:35:02.302Z,66.55
2022-12-05T12:38:01.212Z,66.46
2022-12-05T12:40:33.287Z,66.54
2022-12-05T12:43:44.941Z,66.34
2022-12-05T12:46:39.959Z,66.43
2022-12-05T12:49:18.494Z,66.61
2022-12-05T12:52:01.367Z,65.94
2022-12-05T12:55:02.074Z,66.27
2022-12-05T12:57:52.727Z,66.39
2022-12-05T13:00:31.019Z,66.96
2022-12-05T13:03:13.291Z,66.23
2022-12-05T13:05:46.605Z,65.58
2022-12-05T13:08:22.373Z,65.34
2022-12-05T13:10:49.358Z,65.96
2022-12-05T13:13:25.708Z,66.35
2022-12-05T13:15:54.852Z,66.39
2022-12-05T13:18:24.095Z,66.77
2022-12-05T13:20:52.899Z,66.40
2022-12-05T13:23:23.007Z,66.17
2022-12-05T13:25:50.662Z,66.76
2022-12-05T13:28:42.177Z,68.32
2022-12-05T13:31:09.736Z,68.55
2022-12-05T13:33:56.475Z,68.15
2022-12-05T13:36:42.206Z,67.96
2022-12-05T13:39:33.429Z,68.46
2022-12-05T13:42:13.359Z,68.60
2022-12-05T13:44:57.786Z,69.24
2022-12-05T13:47:35.575Z,68.84
2022-12-05T13:50:20.169Z,68.85
2022-12-05T13:52:50.113Z,69.29
2022-12-05T13:55:36.915Z,70.19
2022-12-05T13:58:23.396Z,69.89
2022-12-05T14:00:53.178Z,70.44
2022-12-05T14:03:35.126Z,69.85
2022-12-05T14:06:01.801Z,69.97
2022-12-05T14:08:31.509Z,69.87
2022-12-05T14:10:58.102Z,69.84
2022-12-05T14:13:25.321Z,69.61
2022-12-05T14:15:53.811Z,70.30
2022-12-05T14:18:47.087Z,71.39
2022-12-05T14:22:00.696Z,70.30
2022-12-05T14:24:40.252Z,71.23
2022-12-05T14:27:32.518Z,70.70
2022-12-05T14:30:05.612Z,71.40
2022-12-05T14:32:42.317Z,71.17
2022-12-05T14:35:15.697Z,71.08
2022-12-05T14:37:53.809Z,70.27
2022-12-05T14:40:23.443Z,69.47
2022-12-05T14:43:00.081Z,69.66
2022-12-05T14:45:30.904Z,69.92
2022-12-05T14:47:59.796Z,70.23
2022-12-05T14:50:46.013Z,69.99
2022-12-05T14:53:21.471Z,69.07
2022-12-05T14:55:50.698Z,69.80
2022-12-05T14:58:20.290Z,68.94
2022-12-05T15:00:55.133Z,68.89
2022-12-05T15:03:30.316Z,68.66
2022-12-05T15:06:03.285Z,69.42
2022-12-05T15:08:33.591Z,68.79
2022-12-05T15:11:00.552Z,68.36
2022-12-05T15:13:30.524Z,68.45
2022-12-05T15:16:16.671Z,69.14
2022-12-05T15:18:52.086Z,68.86
2022-12-05T15:21:38.378Z,68.54
2022-12-05T15:24:11.265Z,68.85
2022-12-05T15:26:49.606Z,68.86
2022-12-05T15:29:28.746Z,68.78
2022-12-05T15:32:16.512Z,69.10
2022-12-05T15:35:02.543Z,70.19
2022-12-05T15:37:45.923Z,69.12
2022-12-05T15:40:17.599Z,68.29
2022-12-05T15:42:55.667Z,68.29
2022-12-05T15:45:24.119Z,68.96
2022-12-05T15:48:07.292Z,68.47
2022-12-05T15:50:35.848Z,67.73
2022-12-05T15:53:11.417Z,68.26
2022-12-05T15:56:01.971Z,67.58
2022-12-05T15:58:36.987Z,68.10
2022-12-05T16:01:09.660Z,67.64
2022-12-05T16:03:49.716Z,67.48
2022-12-05T16:06:23.873Z,67.67
2022-12-05T16:08:50.912Z,68.21
2022-12-05T16:11:17.980Z,67.38
2022-12-05T16:13:52.573Z,68.75
2022-12-05T16:16:21.432Z,67.81
2022-12-05T16:18:59.599Z,69.08
2022-12-05T16:21:39.283Z,69.26
2022-12-05T16:24:11.721Z,69.43
2022-12-05T16:26:39.749Z,68.60
2022-12-05T16:29:08.829Z,68.94
2022-12-05T16:31:36.268Z,68.60
2022-12-05T16:34:07.790Z,68.55
2022-12-05T16:36:35.038Z,69.74
2022-12-05T16:39:03.994Z,70.44
2022-12-05T16:41:38.101Z,69.25
2022-12-05T16:44:11.502Z,68.06
2022-12-05T16:46:43.957Z,69.56
2022-12-05T16:49:20.008Z,68.86
2022-12-05T16:51:59.028Z,70.87
2022-12-05T16:54:25.527Z,69.14
2022-12-05T16:56:52.144Z,70.16
2022-12-05T16:59:24.759Z,70.46
2022-12-05T17:01:51.540Z,71.04
2022-12-05T17:04:18.711Z,72.81
2022-12-05T17:06:45.370Z,71.94
2022-12-05T17:09:12.662Z,70.92
2022-12-05T17:11:41.152Z,71.96
2022-12-05T17:14:11.863Z,71.17
2022-12-05T17:16:38.519Z,70.43
2022-12-05T17:19:05.438Z,71.13
2022-12-05T17:21:33.542Z,70.55
2022-12-05T17:24:01.108Z,71.54
2022-12-05T17:26:27.621Z,72.16
2022-12-05T17:28:54.139Z,71.38
2022-12-05T17:31:22.822Z,71.10
2022-12-05T17:33:51.129Z,71.71
2022-12-05T17:36:17.803Z,72.32
2022-12-05T17:38:45.603Z,71.17
2022-12-05T17:41:20.278Z,70.89
2022-12-05T17:43:47.284Z,71.31
2022-12-05T17:46:20.211Z,71.43
2022-12-05T17:48:47.559Z,71.25
2022-12-05T17:51:14.812Z,71.35
2022-12-05T17:53:42.347Z,70.05
2022-12-05T17:56:09.363Z,70.17
2022-12-05T17:58:35.857Z,69.63
2022-12-05T18:01:02.629Z,70.32
2022-12-05T18:03:29.364Z,69.06
2022-12-05T18:05:56.004Z,70.35
2022-12-05T18:08:24.029Z,69.82
2022-12-05T18:10:51.149Z,70.04
2022-12-05T18:13:18.286Z,68.66
2022-12-05T18:15:47.837Z,70.25
2022-12-05T18:18:16.414Z,69.09
2022-12-05T18:20:43.674Z,70.08
2022-12-05T18:23:10.726Z,68.67
2022-12-05T18:25:37.322Z,68.90
2022-12-05T18:28:03.846Z,69.60
2022-12-05T18:30:30.388Z,69.72
2022-12-05T18:32:56.944Z,68.77
2022-12-05T18:35:40.551Z,68.38
2022-12-05T18:38:08.819Z,69.55
2022-12-05T18:40:35.354Z,68.70
2022-12-05T18:43:02.053Z,69.89
2022-12-05T18:45:28.637Z,68.99
2022-12-05T18:48:09.549Z,68.44
2022-12-05T18:50:41.817Z,67.49
2022-12-05T18:53:09.402Z,66.87
2022-12-05T18:55:58.246Z,67.54
2022-12-05T18:58:22.457Z,66.44
2022-12-05T19:00:49.025Z,66.53
2022-12-05T19:03:15.742Z,66.68
2022-12-05T19:05:43.300Z,66.10
2022-12-05T19:08:09.986Z,65.84
2022-12-05T19:10:36.774Z,65.48
2022-12-05T19:13:03.291Z,65.49
2022-12-05T19:15:30.347Z,65.71
2022-12-05T19:17:56.855Z,65.82
2022-12-05T19:20:23.377Z,66.69
2022-12-05T19:22:49.902Z,67.72
2022-12-05T19:25:16.621Z,68.27
2022-12-05T19:27:43.135Z,68.40
2022-12-05T19:30:10.809Z,67.79
2022-12-05T19:32:40.395Z,67.83
2022-12-05T19:35:07.947Z,68.14
2022-12-05T19:37:35.457Z,67.32
2022-12-05T19:40:01.985Z,66.73
2022-12-05T19:42:29.549Z,66.83
2022-12-05T19:44:56.192Z,66.98
2022-12-05T19:47:22.695Z,67.12
2022-12-05T19:49:49.336Z,66.19
2022-12-05T19:52:17.966Z,65.38
2022-12-05T19:54:45.088Z,65.45
2022-12-05T19:57:11.983Z,64.97
2022-12-05T19:59:38.510Z,65.30
2022-12-05T20:02:05.022Z,64.70
2022-12-05T20:04:31.806Z,64.48
2022-12-05T20:09:38.876Z,64.85
2022-12-05T20:12:05.488Z,64.19
2022-12-05T20:14:33.709Z,64.04
2022-12-05T20:17:00.227Z,63.93
2022-12-05T20:19:26.745Z,64.38
2022-12-05T20:21:55.408Z,65.29
2022-12-05T20:24:22.072Z,64.95
2022-12-05T20:26:48.590Z,64.87
2022-12-05T20:29:15.264Z,67.55
2022-12-05T20:31:42.751Z,67.50
2022-12-05T20:34:10.796Z,67.89
2022-12-05T20:36:37.472Z,69.31
2022-12-05T20:39:06.541Z,68.90
2022-12-05T20:41:33.675Z,67.69
2022-12-05T20:44:02.287Z,67.47
2022-12-05T20:46:29.417Z,67.50
2022-12-05T20:48:58.847Z,67.36
2022-12-05T20:51:30.527Z,67.83
2022-12-05T20:54:02.173Z,68.04
2022-12-05T20:56:31.859Z,68.86
2022-12-05T20:59:00.824Z,68.56
2022-12-05T21:01:29.355Z,69.65
2022-12-05T21:03:56.701Z,69.84
2022-12-05T21:06:30.781Z,68.72
2022-12-05T21:08:58.456Z,69.39
2022-12-05T21:11:25.662Z,69.55
2022-12-05T21:13:52.634Z,68.66
2022-12-05T21:16:20.682Z,68.95
2022-12-05T21:18:47.675Z,68.76
2022-12-05T21:21:22.714Z,67.79
2022-12-05T21:23:54.430Z,67.30
2022-12-05T21:26:22.098Z,68.22
2022-12-05T21:28:48.846Z,66.85
2022-12-05T21:31:18.883Z,67.07
2022-12-05T21:33:51.223Z,66.26
2022-12-05T21:36:19.314Z,66.08
2022-12-05T21:38:49.544Z,66.26
2022-12-05T21:41:20.669Z,66.25
2022-12-05T21:43:52.443Z,65.21
2022-12-05T21:46:21.117Z,65.63
2022-12-05T21:48:47.572Z,65.81
2022-12-05T21:51:14.130Z,65.07
2022-12-05T21:53:40.652Z,66.07
2022-12-05T21:56:11.068Z,66.33
2022-12-05T21:58:42.164Z,65.46
2022-12-05T22:01:10.545Z,65.45
2022-12-05T22:03:37.075Z,65.94
2022-12-05T22:06:10.976Z,65.41
2022-12-05T22:08:38.714Z,65.47
2022-12-05T22:11:09.471Z,64.89
2022-12-05T22:13:36.721Z,64.45
2022-12-05T22:16:04.223Z,63.88
2022-12-05T22:18:31.165Z,64.08
2022-12-05T22:20:58.568Z,64.54
2022-12-05T22:23:25.174Z,63.69
2022-12-05T22:26:02.878Z,63.69
2022-12-05T22:28:29.914Z,63.72
2022-12-05T22:30:57.876Z,63.27
2022-12-05T22:33:25.350Z,63.33
2022-12-05T22:35:53.903Z,62.91
2022-12-05T22:38:20.406Z,62.90
2022-12-05T22:40:53.215Z,63.31
2022-12-05T22:43:19.917Z,62.96
2022-12-05T22:45:46.383Z,63.78
2022-12-05T22:48:12.877Z,63.67
2022-12-05T22:50:39.325Z,62.94
2022-12-05T22:53:05.807Z,62.78
2022-12-05T22:55:32.351Z,63.27
2022-12-05T22:57:59.053Z,62.88
2022-12-05T23:00:25.517Z,63.15
2022-12-05T23:02:52.868Z,62.59
2022-12-05T23:05:19.377Z,63.25
2022-12-05T23:07:45.884Z,63.93
2022-12-05T23:10:12.669Z,62.79
2022-12-05T23:12:39.308Z,62.92
2022-12-05T23:15:06.268Z,62.66
2022-12-05T23:17:33.100Z,62.70
2022-12-05T23:19:59.917Z,62.29
2022-12-05T23:22:26.569Z,63.10
2022-12-05T23:24:53.098Z,62.81
2022-12-05T23:27:19.627Z,62.19
2022-12-05T23:29:46.245Z,62.66
2022-12-05T23:32:12.914Z,62.16
2022-12-05T23:34:39.481Z,62.53
2022-12-05T23:37:05.960Z,63.07
2022-12-05T23:39:32.502Z,63.33
2022-12-05T23:41:59.444Z,62.85
2022-12-05T23:44:25.996Z,62.93
2022-12-05T23:46:52.682Z,63.35
2022-12-05T23:49:19.325Z,63.27
2022-12-05T23:51:45.791Z,64.49
2022-12-05T23:54:12.246Z,63.68
2022-12-05T23:56:38.923Z,64.46
2022-12-05T23:59:06.549Z,64.46
